Погода Налутна 2 недели

Бенгази, Ливия

12 - 25 июля
  • 12июля
    Сегодня
    +26°
    +36°
    Ясно и безоблачно
    ВремяПогодаТемператураВлажностьДавлениеВетер, м/сВероятность осадков
    02:00Ясно и безоблачно+26°C63 %709 мм3.2 м/с1 %
    05:00Ясно и безоблачно+24°C57 %708 мм3.3 м/с1 %
    08:00Ясно и безоблачно+25°C53 %709 мм2.5 м/с1 %
    11:00Ясно и безоблачно+31°C32 %710 мм2.8 м/с1 %
    14:00Ясно и безоблачно+35°C19 %709 мм2.4 м/с1 %
    17:00Ясно и безоблачно+36°C19 %708 мм3.6 м/с1 %
    20:00Ясно и безоблачно+34°C19 %707 мм4.1 м/с1 %
    23:00Ясно и безоблачно+29°C30 %708 мм3.5 м/с1 %
  • 13июля
    Суббота
    +26°
    +39°
    Ясно и безоблачно
    ВремяПогодаТемператураВлажностьДавлениеВетер, м/сВероятность осадков
    02:00Ясно и безоблачно+29°C39 %707 мм2.7 м/с1 %
    05:00Ясно и безоблачно+27°C39 %706 мм3.1 м/с1 %
    08:00Ясно и безоблачно+29°C28 %707 мм2.5 м/с1 %
    11:00Ясно и безоблачно+34°C17 %708 мм3.0 м/с1 %
    14:00Ясно и безоблачно+37°C11 %708 мм2.9 м/с1 %
    17:00Ясно и безоблачно+38°C10 %707 мм4.0 м/с1 %
    20:00Ясно и безоблачно+36°C14 %707 мм3.8 м/с1 %
    23:00Ясно и безоблачно+32°C24 %708 мм3.5 м/с1 %
  • 14июля
    Воскресенье
    +29°
    +41°
    Ясно и безоблачно
    ВремяПогодаТемператураВлажностьДавлениеВетер, м/сВероятность осадков
    02:00Ясно и безоблачно+31°C24 %707 мм2.8 м/с0 %
    05:00Ясно и безоблачно+30°C19 %707 мм2.6 м/с0 %
    08:00Ясно и безоблачно+31°C21 %708 мм2.3 м/с0 %
    11:00Ясно и безоблачно+37°C15 %710 мм2.3 м/с0 %
    14:00Ясно и безоблачно+40°C12 %709 мм3.4 м/с0 %
    17:00Ясно и безоблачно+40°C11 %708 мм3.8 м/с0 %
    20:00Ясно и безоблачно+38°C13 %708 мм3.5 м/с0 %
    23:00Ясно и безоблачно+35°C17 %708 мм3.1 м/с0 %
  • 15июля
    Понедельник
    +27°
    +41°
    Ясно и безоблачно
    ВремяПогодаТемператураВлажностьДавлениеВетер, м/сВероятность осадков
    02:00Ясно и безоблачно+34°C22 %708 мм3.3 м/с0 %
    05:00Ясно и безоблачно+32°C25 %707 мм3.4 м/с0 %
    08:00Ясно и безоблачно+32°C23 %708 мм2.4 м/с0 %
    11:00Ясно и безоблачно+37°C13 %709 мм2.4 м/с0 %
    14:00Ясно и безоблачно+41°C10 %709 мм3.8 м/с0 %
    17:00Ясно и безоблачно+41°C10 %708 мм4.6 м/с0 %
    20:00Ясно и безоблачно+37°C12 %707 мм4.5 м/с0 %
    23:00Ясно и безоблачно+30°C20 %708 мм3.8 м/с0 %
  • 16июля
    Вторник
    +25°
    +38°
    Ясно и безоблачно
    ВремяПогодаТемператураВлажностьДавлениеВетер, м/сВероятность осадков
    02:00Ясно и безоблачно+29°C24 %708 мм3.3 м/с0 %
    05:00Ясно и безоблачно+28°C27 %707 мм3.3 м/с0 %
    08:00Ясно и безоблачно+28°C28 %708 мм2.6 м/с0 %
    11:00Ясно и безоблачно+31°C27 %709 мм3.9 м/с0 %
    14:00Ясно и безоблачно+36°C16 %709 мм4.7 м/с0 %
    17:00Ясно и безоблачно+37°C14 %709 мм4.7 м/с0 %
    20:00Ясно и безоблачно+33°C25 %709 мм5.3 м/с0 %
    23:00Ясно и безоблачно+28°C37 %710 мм3.5 м/с0 %
Мы используем cookies
Соглашаюсь